Nearby METAR Reports

 

KSJC - San Jose, California, USA
Distance from station: NE 14km
Updated: 01/03/2021 20:53
Clear
Clear
 Wind from calm
Wind: Calm
Temperature: 14°C
Dew Point: -7°C
Humidity: 23%
Barometer: 1017.3 hPa
Clouds: Clear
Visibility: 16 km
2021/03/02 04:53 KSJC 020453Z 00000KT 10SM CLR 14/M07 A3004 RMK AO2 SLP171 T01441072
KNUQ - Moffett Nas/Mtn, California, USA
Distance from station: N 14km
Updated: 01/03/2021 21:10
Clear
Clear
 Wind from calm
Wind: Calm
Temperature: 13°C
Dew Point: -2°C
Humidity: 36%
Barometer: 1017.3 hPa
Clouds: Clear
Visibility: 16 km
2021/03/02 05:10 KNUQ 020510Z AUTO 00000KT 10SM CLR 13/M02 A3004 RMK AO2
 
KPAO - Palo Alto, California, USA
Distance from station: NNW 23km
Updated: 01/03/2021 20:47
Clear
Clear
 Wind from N
Wind: N 9 km/h
Temperature: 11°C
Dew Point: 6°C
Humidity: 72%
Barometer: 1017.6 hPa
Clouds: Clear
Visibility: 16 km
2021/03/02 04:47 KPAO 020447Z 36005KT 10SM SKC 11/06 A3005 RMK LAST
KRHV - San Jose/Reid, California, USA
Distance from station: ENE 19km
Updated: 01/03/2021 20:47
Clear
Clear
 Wind from calm
Wind: Calm
Temperature: 12°C
Dew Point: -2°C
Humidity: 38%
Barometer: 1017.3 hPa
Clouds: Clear
Visibility: 16 km
2021/03/02 04:47 KRHV 020447Z 00000KT 10SM SKC 12/M02 A3004
 
KOAK - Oakland, California, USA
Distance from station: NNW 50km
Updated: 01/03/2021 20:53
Few Clouds
Few Clouds
 Wind from N
Wind: N 13 km/h
Temperature: 13°C
Dew Point: 3°C
Humidity: 51%
Barometer: 1017.9 hPa
Clouds: Few Clouds
Visibility: 16 km
Cloud details: Few Clouds 2438 m
Few Clouds 6096 m
2021/03/02 04:53 KOAK 020453Z 36007KT 10SM FEW080 FEW200 13/03 A3006 RMK AO2 SLP180 T01330028
KSQL - San Carlos Airpo, California, USA
Distance from station: NW 34km
Updated: 01/03/2021 21:15
Clear
Clear
 Wind from NNW
Wind: NNW 6 km/h
Temperature: 13°C
Dew Point: 4°C
Humidity: 55%
Barometer: 1017.9 hPa
Clouds: Clear
Visibility: 16 km
2021/03/02 05:15 KSQL 020515Z AUTO 33003KT 10SM CLR 13/04 A3006 RMK AO2
 
KSFO - San Francisco, California, USA
Distance from station: NW 49km
Updated: 01/03/2021 20:56
Few Clouds
Few Clouds
 Wind from WNW
Wind: WNW 7 km/h
Temperature: 12°C
Dew Point: 2°C
Humidity: 51%
Barometer: 1017.3 hPa
Clouds: Few Clouds
Visibility: 16 km
Cloud details: Few Clouds 6096 m
2021/03/02 04:56 KSFO 020456Z 30004KT 10SM FEW200 12/02 A3004 RMK AO2 SLP173 T01220022
KE16 - San Martin, California, USA
Distance from station: ESE 43km
Updated: 01/03/2021 21:15
Clear
Clear
 Wind from NNE
Wind: NNE 7 km/h
Temperature: 9°C
Wind Chill: 8°C
Dew Point: -1°C
Humidity: 50%
Barometer: 1018.3 hPa
Clouds: Clear
Visibility: 16 km
2021/03/02 05:15 KE16 020515Z AUTO 02004KT 10SM CLR 09/M01 A3007 RMK AO2
 
KWVI - Watsonville, California, USA
Distance from station: SSE 44km
Updated: 01/03/2021 20:53
Clear
Clear
 Wind from NNW
Wind: NNW 6 km/h
Temperature: 10°C
Dew Point: -2°C
Humidity: 43%
Barometer: 1017.3 hPa
Clouds: Clear
Visibility: 16 km
2021/03/02 04:53 KWVI 020453Z AUTO 33003KT 10SM CLR 10/M02 A3004 RMK AO2 SLP173 T01001017
KHAF - Half Moon Bay, California, USA
Distance from station: WNW 50km
Updated: 01/03/2021 21:15
Clear
Clear
 Wind from NNE
Wind: NNE 7 km/h
Temperature: 4°C
Wind Chill: 2°C
Dew Point: 1°C
Humidity: 81%
Barometer: 1017.6 hPa
Clouds: Clear
Visibility: 14 km
2021/03/02 05:15 KHAF 020515Z AUTO 03004KT 9SM CLR 04/01 A3005 RMK AO2
 
KHWD - Hayward, California, USA
Distance from station: N 44km
Updated: 01/03/2021 20:54
Clear
Clear
 Wind from calm
Wind: Calm
Temperature: 13°C
Dew Point: -1°C
Humidity: 38%
Barometer: 1017.3 hPa
Clouds: Clear
Visibility: 16 km
2021/03/02 04:54 KHWD 020454Z 00000KT 10SM CLR 13/M01 A3004 RMK AO2 SLP184 T01281011
KLVK - Livermore, California, USA
Distance from station: NNE 51km
Updated: 01/03/2021 20:53
Clear
Clear
 Wind from calm
Wind: Calm
Temperature: 11°C
Dew Point: -3°C
Humidity: 38%
Barometer: 1017.6 hPa
Clouds: Clear
Visibility: 16 km
2021/03/02 04:53 KLVK 020453Z 00000KT 10SM CLR 11/M03 A3005 RMK AO2 SLP174 T01061028